sensor_id;sensor_type;location;lat;lon;timestamp;P1;durP1;ratioP1;P2;durP2;ratioP2
50649;SDS011;36621;60.058;30.346;2023-04-24T00:00:18;50.40;;;13.70;;
50649;SDS011;36621;60.058;30.346;2023-04-24T00:07:51;32.15;;;11.40;;
50649;SDS011;36621;60.058;30.346;2023-04-24T00:15:24;44.08;;;12.60;;
50649;SDS011;36621;60.058;30.346;2023-04-24T00:22:57;48.83;;;13.85;;
50649;SDS011;36621;60.058;30.346;2023-04-24T00:30:29;43.38;;;13.30;;
50649;SDS011;36621;60.058;30.346;2023-04-24T00:38:02;43.15;;;13.88;;
50649;SDS011;36621;60.058;30.346;2023-04-24T00:45:34;32.70;;;12.25;;
50649;SDS011;36621;60.058;30.346;2023-04-24T00:53:07;36.38;;;13.88;;
50649;SDS011;36621;60.058;30.346;2023-04-24T01:00:39;47.45;;;16.48;;
50649;SDS011;36621;60.058;30.346;2023-04-24T01:08:12;34.53;;;11.88;;
50649;SDS011;36621;60.058;30.346;2023-04-24T01:15:45;38.95;;;12.85;;
50649;SDS011;36621;60.058;30.346;2023-04-24T01:23:18;34.63;;;13.48;;
50649;SDS011;36621;60.058;30.346;2023-04-24T01:30:51;33.15;;;11.55;;
50649;SDS011;36621;60.058;30.346;2023-04-24T01:38:28;29.20;;;11.38;;
50649;SDS011;36621;60.058;30.346;2023-04-24T01:46:01;29.50;;;9.40;;
50649;SDS011;36621;60.058;30.346;2023-04-24T01:53:34;16.30;;;6.80;;
50649;SDS011;36621;60.058;30.346;2023-04-24T02:01:07;15.98;;;6.75;;
50649;SDS011;36621;60.058;30.346;2023-04-24T02:08:40;14.65;;;5.75;;
50649;SDS011;36621;60.058;30.346;2023-04-24T02:16:12;13.07;;;4.75;;
50649;SDS011;36621;60.058;30.346;2023-04-24T02:24:05;9.20;;;4.55;;
50649;SDS011;36621;60.058;30.346;2023-04-24T02:31:37;13.05;;;4.80;;
50649;SDS011;36621;60.058;30.346;2023-04-24T02:39:09;12.65;;;4.95;;
50649;SDS011;36621;60.058;30.346;2023-04-24T02:46:43;14.35;;;4.97;;
50649;SDS011;36621;60.058;30.346;2023-04-24T02:54:16;10.40;;;4.38;;
50649;SDS011;36621;60.058;30.346;2023-04-24T03:01:48;11.18;;;4.45;;
50649;SDS011;36621;60.058;30.346;2023-04-24T03:09:21;10.52;;;4.60;;
50649;SDS011;36621;60.058;30.346;2023-04-24T03:16:53;7.47;;;3.85;;
50649;SDS011;36621;60.058;30.346;2023-04-24T03:24:26;13.95;;;4.03;;
50649;SDS011;36621;60.058;30.346;2023-04-24T03:32:00;10.23;;;3.75;;
50649;SDS011;36621;60.058;30.346;2023-04-24T03:39:34;9.55;;;3.90;;
50649;SDS011;36621;60.058;30.346;2023-04-24T03:47:06;19.55;;;4.20;;
50649;SDS011;36621;60.058;30.346;2023-04-24T03:54:41;10.27;;;4.80;;
50649;SDS011;36621;60.058;30.346;2023-04-24T04:02:13;14.23;;;3.80;;
50649;SDS011;36621;60.058;30.346;2023-04-24T04:09:46;13.35;;;3.97;;
50649;SDS011;36621;60.058;30.346;2023-04-24T04:17:18;19.83;;;5.53;;
50649;SDS011;36621;60.058;30.346;2023-04-24T04:24:51;15.68;;;4.00;;
50649;SDS011;36621;60.058;30.346;2023-04-24T04:32:27;14.95;;;4.25;;
50649;SDS011;36621;60.058;30.346;2023-04-24T04:40:00;17.83;;;5.40;;
50649;SDS011;36621;60.058;30.346;2023-04-24T04:47:42;13.20;;;4.28;;
50649;SDS011;36621;60.058;30.346;2023-04-24T04:55:16;22.67;;;4.80;;
50649;SDS011;36621;60.058;30.346;2023-04-24T05:03:10;11.63;;;3.80;;
50649;SDS011;36621;60.058;30.346;2023-04-24T05:10:44;16.35;;;4.18;;
50649;SDS011;36621;60.058;30.346;2023-04-24T05:18:16;24.33;;;4.90;;
50649;SDS011;36621;60.058;30.346;2023-04-24T05:25:50;15.48;;;3.78;;
50649;SDS011;36621;60.058;30.346;2023-04-24T05:33:24;34.13;;;5.63;;
50649;SDS011;36621;60.058;30.346;2023-04-24T05:40:57;18.45;;;3.92;;
50649;SDS011;36621;60.058;30.346;2023-04-24T05:48:31;20.50;;;4.80;;
50649;SDS011;36621;60.058;30.346;2023-04-24T16:28:21;20.30;;;7.68;;
50649;SDS011;36621;60.058;30.346;2023-04-24T16:35:53;25.58;;;7.40;;
50649;SDS011;36621;60.058;30.346;2023-04-24T16:43:30;40.45;;;10.23;;
50649;SDS011;36621;60.058;30.346;2023-04-24T16:51:04;15.68;;;8.20;;
50649;SDS011;36621;60.058;30.346;2023-04-24T16:58:44;23.17;;;8.57;;
50649;SDS011;36621;60.058;30.346;2023-04-24T17:06:18;24.17;;;9.45;;
50649;SDS011;36621;60.058;30.346;2023-04-24T17:13:51;18.05;;;7.65;;
50649;SDS011;36621;60.058;30.346;2023-04-24T17:21:23;22.35;;;7.78;;
50649;SDS011;36621;60.058;30.346;2023-04-24T17:28:56;21.80;;;8.82;;
50649;SDS011;36621;60.058;30.346;2023-04-24T17:36:28;23.92;;;9.85;;
50649;SDS011;36621;60.058;30.346;2023-04-24T17:44:02;15.30;;;7.78;;
50649;SDS011;36621;60.058;30.346;2023-04-24T17:51:34;13.90;;;7.95;;
50649;SDS011;36621;60.058;30.346;2023-04-24T17:59:07;29.08;;;10.18;;
50649;SDS011;36621;60.058;30.346;2023-04-24T18:06:42;20.75;;;10.50;;
50649;SDS011;36621;60.058;30.346;2023-04-24T18:14:15;17.15;;;10.60;;
50649;SDS011;36621;60.058;30.346;2023-04-24T18:21:47;19.58;;;11.68;;
50649;SDS011;36621;60.058;30.346;2023-04-24T19:25:43;37.90;;;18.20;;
50649;SDS011;36621;60.058;30.346;2023-04-24T19:33:16;20.13;;;11.05;;
50649;SDS011;36621;60.058;30.346;2023-04-24T19:40:49;21.27;;;11.82;;
50649;SDS011;36621;60.058;30.346;2023-04-24T19:48:23;24.35;;;12.77;;
50649;SDS011;36621;60.058;30.346;2023-04-24T19:55:57;26.02;;;15.23;;
50649;SDS011;36621;60.058;30.346;2023-04-24T20:03:31;25.55;;;12.10;;
50649;SDS011;36621;60.058;30.346;2023-04-24T20:11:15;20.40;;;12.00;;
50649;SDS011;36621;60.058;30.346;2023-04-24T20:18:54;28.25;;;15.50;;
50649;SDS011;36621;60.058;30.346;2023-04-24T20:26:34;31.00;;;12.35;;
